createdAt,value
2023-09-09T00:02:21.672Z,88943.28
2023-09-09T00:05:06.864Z,88944.41
2023-09-09T00:07:52.058Z,88944.97
2023-09-09T00:10:37.167Z,88939.13
2023-09-09T00:13:22.369Z,88940.50
2023-09-09T00:16:07.679Z,88946.38
2023-09-09T00:18:52.733Z,88941.50
2023-09-09T00:21:37.890Z,88939.28
2023-09-09T00:24:23.044Z,88941.69
2023-09-09T00:27:08.176Z,88939.63
2023-09-09T00:29:53.185Z,88936.00
2023-09-09T00:32:38.333Z,88941.19
2023-09-09T00:35:23.554Z,88936.34
2023-09-09T00:38:08.773Z,88944.28
2023-09-09T00:40:53.986Z,88940.13
2023-09-09T00:43:39.455Z,88944.72
2023-09-09T00:46:24.747Z,88937.31
2023-09-09T00:49:09.715Z,88935.13
2023-09-09T00:51:54.885Z,88943.75
2023-09-09T00:54:39.974Z,88936.50
2023-09-09T00:57:25.028Z,88937.66
2023-09-09T01:00:10.229Z,88932.09
2023-09-09T01:02:55.359Z,88921.47
2023-09-09T01:05:40.436Z,88928.06
2023-09-09T01:08:25.450Z,88931.13
2023-09-09T01:11:10.507Z,88923.03
2023-09-09T01:13:55.803Z,88925.81
2023-09-09T01:16:40.774Z,88920.81
2023-09-09T01:19:25.883Z,88926.69
2023-09-09T01:22:11.007Z,88926.81
2023-09-09T01:24:56.208Z,88921.94
2023-09-09T01:27:41.257Z,88919.19
2023-09-09T01:30:26.411Z,88925.03
2023-09-09T01:33:11.494Z,88922.53
2023-09-09T01:35:56.580Z,88922.38
2023-09-09T01:38:41.803Z,88921.56
2023-09-09T01:41:26.860Z,88916.81
2023-09-09T01:44:11.985Z,88916.56
2023-09-09T01:46:57.044Z,88922.72
2023-09-09T01:49:42.093Z,88921.19
2023-09-09T01:52:27.305Z,88925.06
2023-09-09T01:55:12.323Z,88924.13
2023-09-09T01:57:57.359Z,88918.84
2023-09-09T02:00:42.378Z,88921.22
2023-09-09T02:03:27.619Z,88920.97
2023-09-09T02:06:12.707Z,88921.66
2023-09-09T02:08:57.989Z,88922.34
2023-09-09T02:11:43.661Z,88923.72
2023-09-09T02:14:28.604Z,88914.84
2023-09-09T02:17:13.854Z,88919.00
2023-09-09T02:19:58.853Z,88924.88
2023-09-09T02:22:44.152Z,88923.63
2023-09-09T02:25:29.241Z,88922.22
2023-09-09T02:28:14.441Z,88918.03
2023-09-09T02:30:59.557Z,88923.34
2023-09-09T02:33:44.521Z,88918.63
2023-09-09T02:36:29.746Z,88924.34
2023-09-09T02:39:15.026Z,88919.50
2023-09-09T02:42:00.136Z,88922.13
2023-09-09T02:44:45.205Z,88923.13
2023-09-09T02:47:30.289Z,88926.19
2023-09-09T02:50:15.397Z,88920.38
2023-09-09T02:53:00.458Z,88925.69
2023-09-09T02:55:45.810Z,88921.66
2023-09-09T02:58:30.905Z,88917.03
2023-09-09T03:01:16.097Z,88922.09
2023-09-09T03:04:01.191Z,88924.16
2023-09-09T03:06:46.308Z,88927.22
2023-09-09T03:09:31.522Z,88928.50
2023-09-09T03:12:16.610Z,88922.38
2023-09-09T03:15:01.755Z,88924.44
2023-09-09T03:17:46.900Z,88910.25
2023-09-09T03:20:32.160Z,88914.72
2023-09-09T03:23:17.114Z,88921.38
2023-09-09T03:26:02.263Z,88921.97
2023-09-09T03:28:47.546Z,88923.66
2023-09-09T03:31:32.695Z,88914.84
2023-09-09T03:34:17.852Z,88921.25
2023-09-09T03:37:02.989Z,88916.53
2023-09-09T03:39:48.199Z,88914.44
2023-09-09T03:42:33.353Z,88911.09
2023-09-09T03:45:18.585Z,88920.44
2023-09-09T03:48:03.531Z,88919.59
2023-09-09T03:50:48.477Z,88909.16
2023-09-09T03:53:33.471Z,88912.38
2023-09-09T03:56:18.645Z,88914.19
2023-09-09T03:59:03.903Z,88908.91
2023-09-09T04:01:49.121Z,88912.81
2023-09-09T04:04:34.465Z,88913.78
2023-09-09T04:07:19.259Z,88907.22
2023-09-09T04:10:04.259Z,88917.41
2023-09-09T04:12:49.379Z,88910.88
2023-09-09T04:15:34.525Z,88914.78
2023-09-09T04:18:27.424Z,88912.66
2023-09-09T04:21:19.472Z,88913.94
2023-09-09T04:24:04.823Z,88917.28
2023-09-09T04:26:49.847Z,88914.91
2023-09-09T04:29:34.933Z,88923.84
2023-09-09T04:32:19.924Z,88922.44
2023-09-09T04:35:05.075Z,88915.22
2023-09-09T04:37:50.300Z,88918.13
2023-09-09T04:40:35.395Z,88917.97
2023-09-09T04:43:20.566Z,88915.34
2023-09-09T04:46:05.559Z,88917.84
2023-09-09T04:48:50.690Z,88917.03
2023-09-09T04:51:35.593Z,88918.41
2023-09-09T04:54:20.736Z,88918.13
2023-09-09T04:57:05.905Z,88919.41
2023-09-09T04:59:50.906Z,88921.88
2023-09-09T05:02:36.061Z,88923.00
2023-09-09T05:05:21.211Z,88926.91
2023-09-09T05:08:06.207Z,88929.69
2023-09-09T05:10:51.103Z,88928.97
2023-09-09T05:13:36.539Z,88924.81
2023-09-09T05:16:22.010Z,88926.63
2023-09-09T05:19:07.049Z,88922.88
2023-09-09T05:21:52.225Z,88922.31
2023-09-09T05:24:37.316Z,88924.81
2023-09-09T05:27:22.682Z,88933.72
2023-09-09T05:30:07.839Z,88932.19
2023-09-09T05:32:53.280Z,88932.63
2023-09-09T05:35:38.172Z,88939.72
2023-09-09T05:38:23.246Z,88941.94
2023-09-09T05:41:08.523Z,88934.56
2023-09-09T05:43:53.448Z,88941.78
2023-09-09T05:46:38.759Z,88943.19
2023-09-09T05:49:36.153Z,88937.91
2023-09-09T05:52:24.110Z,88937.19
2023-09-09T05:55:09.173Z,88945.97
2023-09-09T05:57:54.316Z,88942.47
2023-09-09T06:00:39.474Z,88940.81
2023-09-09T06:03:24.623Z,88950.28
2023-09-09T06:06:10.048Z,88947.31
2023-09-09T06:08:55.118Z,88956.94
2023-09-09T06:11:40.424Z,88965.81
2023-09-09T06:14:25.457Z,88957.50
2023-09-09T06:17:10.420Z,88955.78
2023-09-09T06:19:55.559Z,88968.06
2023-09-09T06:22:40.657Z,88964.56
2023-09-09T06:25:25.929Z,88965.25
2023-09-09T06:28:10.957Z,88960.13
2023-09-09T06:30:56.039Z,88973.44
2023-09-09T06:33:44.047Z,88962.84
2023-09-09T06:36:30.115Z,88966.91
2023-09-09T06:39:15.309Z,88966.00
2023-09-09T06:42:00.238Z,88967.91
2023-09-09T06:44:45.294Z,88965.94
2023-09-09T06:47:30.412Z,88967.56
2023-09-09T06:50:15.441Z,88970.03
2023-09-09T06:53:00.440Z,88976.94
2023-09-09T06:55:45.387Z,88980.25
2023-09-09T06:58:30.412Z,88972.53
2023-09-09T07:01:15.315Z,88983.03
2023-09-09T07:04:00.348Z,88979.78
2023-09-09T07:07:00.042Z,88982.06
2023-09-09T07:09:49.743Z,88985.63
2023-09-09T07:12:34.883Z,88977.50
2023-09-09T07:15:19.909Z,88982.38
2023-09-09T07:18:05.065Z,88981.69
2023-09-09T07:20:49.794Z,88985.13
2023-09-09T07:23:34.868Z,88987.00
2023-09-09T07:26:20.196Z,88990.31
2023-09-09T07:29:05.034Z,88986.16
2023-09-09T07:31:50.167Z,88981.94
2023-09-09T07:34:35.149Z,88978.94
2023-09-09T07:37:20.556Z,88979.78
2023-09-09T07:40:05.452Z,88969.56
2023-09-09T07:42:50.532Z,88972.59
2023-09-09T07:45:35.596Z,88967.34
2023-09-09T07:48:20.605Z,88980.59
2023-09-09T07:51:05.919Z,88977.88
2023-09-09T07:53:50.847Z,88966.72
2023-09-09T07:56:35.901Z,88971.31
2023-09-09T07:59:20.972Z,88970.75
2023-09-09T08:02:06.162Z,88971.53
2023-09-09T08:04:51.233Z,88974.69
2023-09-09T08:07:36.286Z,88969.97
2023-09-09T08:10:21.498Z,88969.47
2023-09-09T08:13:06.542Z,88971.16
2023-09-09T08:15:51.683Z,88969.44
2023-09-09T08:18:36.627Z,88968.38
2023-09-09T08:21:21.764Z,88968.25
2023-09-09T08:24:06.915Z,88970.53
2023-09-09T08:26:51.931Z,88967.66
2023-09-09T08:29:37.051Z,88965.19
2023-09-09T08:32:22.051Z,88969.25
2023-09-09T08:35:07.318Z,88975.69
2023-09-09T08:37:52.319Z,88964.97
2023-09-09T08:40:37.527Z,88977.16
2023-09-09T08:43:22.531Z,88968.47
2023-09-09T08:46:07.755Z,88971.59
2023-09-09T08:48:52.858Z,88969.25
2023-09-09T08:51:37.942Z,88972.69
2023-09-09T08:54:23.034Z,88972.41
2023-09-09T08:57:08.155Z,88965.06
2023-09-09T08:59:53.294Z,88963.41
2023-09-09T09:02:38.561Z,88961.31
2023-09-09T09:05:23.584Z,88962.00
2023-09-09T09:08:08.607Z,88955.31
2023-09-09T09:10:53.759Z,88954.47
2023-09-09T09:13:38.913Z,88960.34
2023-09-09T09:16:23.593Z,88960.47
2023-09-09T09:19:08.815Z,88958.31
2023-09-09T09:21:53.891Z,88955.81
2023-09-09T09:24:39.267Z,88955.84
2023-09-09T09:27:24.446Z,88955.78
2023-09-09T09:30:09.418Z,88952.44
2023-09-09T09:32:54.617Z,88955.66
2023-09-09T09:35:39.581Z,88946.78
2023-09-09T09:38:24.630Z,88952.28
2023-09-09T09:41:09.680Z,88950.41
2023-09-09T09:43:54.919Z,88946.56
2023-09-09T09:46:40.025Z,88943.50
2023-09-09T09:49:25.144Z,88945.31
2023-09-09T09:52:10.508Z,88942.97
2023-09-09T09:54:55.333Z,88938.94
2023-09-09T09:57:40.483Z,88933.31
2023-09-09T10:00:25.424Z,88935.09
2023-09-09T10:03:10.661Z,88926.75
2023-09-09T10:05:55.790Z,88931.50
2023-09-09T10:08:40.817Z,88919.81
2023-09-09T10:11:25.986Z,88920.16
2023-09-09T10:14:11.017Z,88924.72
2023-09-09T10:16:56.225Z,88920.44
2023-09-09T10:19:41.130Z,88921.72
2023-09-09T10:22:26.310Z,88913.16
2023-09-09T10:25:11.447Z,88913.41
2023-09-09T10:27:56.653Z,88916.00
2023-09-09T10:30:41.778Z,88911.91
2023-09-09T10:33:26.728Z,88910.00
2023-09-09T10:36:11.836Z,88904.53
2023-09-09T10:38:57.079Z,88904.44
2023-09-09T10:41:42.227Z,88903.50
2023-09-09T10:44:27.511Z,88899.53
2023-09-09T10:47:12.642Z,88901.00
2023-09-09T10:49:57.817Z,88893.97
2023-09-09T10:52:42.616Z,88895.31
2023-09-09T10:55:27.901Z,88890.22
2023-09-09T10:58:12.924Z,88886.72
2023-09-09T11:00:57.938Z,88887.84
2023-09-09T11:03:42.954Z,88889.25
2023-09-09T11:06:28.138Z,88886.22
2023-09-09T11:09:13.162Z,88883.63
2023-09-09T11:11:58.225Z,88884.63
2023-09-09T11:14:43.444Z,88885.09
2023-09-09T11:17:28.575Z,88877.63
2023-09-09T11:20:13.703Z,88876.94
2023-09-09T11:22:58.672Z,88878.06
2023-09-09T11:25:43.763Z,88870.44
2023-09-09T11:28:28.810Z,88877.75
2023-09-09T11:31:14.043Z,88876.50
2023-09-09T11:33:59.301Z,88874.13
2023-09-09T11:36:44.482Z,88874.34
2023-09-09T11:39:29.575Z,88870.41
2023-09-09T11:42:14.706Z,88869.19
2023-09-09T11:44:59.916Z,88857.19
2023-09-09T11:47:44.880Z,88859.00
2023-09-09T11:50:30.168Z,88865.22
2023-09-09T11:53:15.352Z,88860.56
2023-09-09T11:56:00.413Z,88858.41
2023-09-09T11:58:45.693Z,88844.94
2023-09-09T12:01:30.893Z,88849.56
2023-09-09T12:04:16.133Z,88849.63
2023-09-09T12:07:00.937Z,88848.38
2023-09-09T12:09:45.930Z,88844.34
2023-09-09T12:12:31.121Z,88843.00
2023-09-09T12:15:16.130Z,88844.72
2023-09-09T12:18:01.493Z,88835.06
2023-09-09T12:20:46.485Z,88839.72
2023-09-09T12:23:31.573Z,88833.56
2023-09-09T12:26:16.637Z,88838.84
2023-09-09T12:29:01.733Z,88829.88
2023-09-09T12:31:46.847Z,88831.41
2023-09-09T12:34:31.819Z,88827.88
2023-09-09T12:37:16.968Z,88822.69
2023-09-09T12:40:02.098Z,88822.16
2023-09-09T12:42:47.224Z,88825.94
2023-09-09T12:45:32.310Z,88820.72
2023-09-09T12:48:17.412Z,88816.16
2023-09-09T12:51:02.534Z,88816.34
2023-09-09T12:53:47.607Z,88812.06
2023-09-09T12:56:32.844Z,88813.00
2023-09-09T12:59:17.818Z,88814.38
2023-09-09T13:02:03.022Z,88808.50
2023-09-09T13:04:48.080Z,88809.72
2023-09-09T13:07:33.295Z,88815.44
2023-09-09T13:10:18.363Z,88819.50
2023-09-09T13:13:03.527Z,88814.69
2023-09-09T13:15:48.865Z,88817.81
2023-09-09T13:18:33.816Z,88808.66
2023-09-09T13:21:18.982Z,88811.03
2023-09-09T13:24:04.051Z,88811.41
2023-09-09T13:26:49.166Z,88806.66
2023-09-09T13:29:34.188Z,88808.19
2023-09-09T13:32:19.473Z,88811.03
2023-09-09T13:35:04.544Z,88808.44
2023-09-09T13:37:49.668Z,88805.59
2023-09-09T13:40:34.806Z,88803.16
2023-09-09T13:43:19.871Z,88797.19
2023-09-09T13:46:04.996Z,88796.97
2023-09-09T13:48:49.837Z,88792.59
2023-09-09T13:51:35.018Z,88793.94
2023-09-09T13:54:20.104Z,88797.44
2023-09-09T13:57:05.171Z,88795.19
2023-09-09T13:59:50.277Z,88794.81
2023-09-09T14:02:35.419Z,88795.22
2023-09-09T14:05:20.521Z,88789.78
2023-09-09T14:08:05.525Z,88788.81
2023-09-09T14:10:50.666Z,88788.28
2023-09-09T14:13:35.839Z,88785.19
2023-09-09T14:16:20.921Z,88780.97
2023-09-09T14:19:06.190Z,88780.97
2023-09-09T14:21:51.255Z,88779.06
2023-09-09T14:24:36.287Z,88782.78
2023-09-09T14:27:21.261Z,88779.66
2023-09-09T14:30:06.337Z,88784.00
2023-09-09T14:32:51.492Z,88791.41
2023-09-09T14:35:36.585Z,88785.50
2023-09-09T14:38:21.712Z,88783.44
2023-09-09T14:41:06.894Z,88785.50
2023-09-09T14:43:52.067Z,88782.13
2023-09-09T14:46:37.350Z,88789.34
2023-09-09T14:49:22.614Z,88783.22
2023-09-09T14:52:07.603Z,88787.41
2023-09-09T14:54:52.981Z,88782.22
2023-09-09T14:57:38.116Z,88788.13
2023-09-09T15:00:23.278Z,88781.38
2023-09-09T15:03:08.575Z,88789.50
2023-09-09T15:05:53.679Z,88784.81
2023-09-09T15:08:39.056Z,88786.19
2023-09-09T15:11:24.359Z,88789.56
2023-09-09T15:14:09.491Z,88785.22
2023-09-09T15:16:54.638Z,88790.97
2023-09-09T15:19:39.737Z,88790.91
2023-09-09T15:22:24.929Z,88786.09
2023-09-09T15:25:09.782Z,88791.31
2023-09-09T15:27:54.987Z,88791.78
2023-09-09T15:30:39.991Z,88791.50
2023-09-09T15:33:25.005Z,88785.28
2023-09-09T15:36:10.066Z,88782.53
2023-09-09T15:38:55.152Z,88790.41
2023-09-09T15:41:40.447Z,88784.91
2023-09-09T15:44:25.667Z,88791.59
2023-09-09T15:47:10.681Z,88789.38
2023-09-09T15:49:55.801Z,88787.84
2023-09-09T15:52:40.801Z,88791.63
2023-09-09T15:55:25.828Z,88788.09
2023-09-09T15:58:11.097Z,88791.13
2023-09-09T16:00:56.186Z,88790.06
2023-09-09T16:03:41.268Z,88793.28
2023-09-09T16:06:26.222Z,88793.03
2023-09-09T16:09:11.192Z,88787.28
2023-09-09T16:11:56.319Z,88781.56
2023-09-09T16:14:41.541Z,88791.19
2023-09-09T16:17:26.648Z,88799.63
2023-09-09T16:20:11.751Z,88790.84
2023-09-09T16:22:56.846Z,88790.50
2023-09-09T16:25:42.112Z,88790.34
2023-09-09T16:28:27.079Z,88792.00
2023-09-09T16:31:12.248Z,88796.72
2023-09-09T16:33:57.148Z,88795.19
2023-09-09T16:36:42.187Z,88802.28
2023-09-09T16:39:27.311Z,88803.66
2023-09-09T16:42:12.295Z,88803.06
2023-09-09T16:44:57.484Z,88808.94
2023-09-09T16:47:42.531Z,88812.97
2023-09-09T16:50:27.762Z,88810.13
2023-09-09T16:53:12.684Z,88813.50
2023-09-09T16:55:57.870Z,88816.53
2023-09-09T16:58:42.969Z,88816.28
2023-09-09T17:01:28.297Z,88807.31
2023-09-09T17:04:13.237Z,88814.81
2023-09-09T17:06:58.239Z,88821.19
2023-09-09T17:09:43.151Z,88810.84
2023-09-09T17:12:28.294Z,88821.78
2023-09-09T17:15:13.534Z,88814.06
2023-09-09T17:17:58.633Z,88821.66
2023-09-09T17:20:43.628Z,88814.78
2023-09-09T17:23:28.763Z,88823.97
2023-09-09T17:26:13.984Z,88826.22
2023-09-09T17:28:59.161Z,88825.06
2023-09-09T17:31:44.335Z,88819.22
2023-09-09T17:34:29.428Z,88826.09
2023-09-09T17:37:14.642Z,88834.81
2023-09-09T17:39:59.789Z,88840.41
2023-09-09T17:42:44.838Z,88841.31
2023-09-09T17:45:29.782Z,88843.50
2023-09-09T17:48:15.186Z,88846.22
2023-09-09T17:51:00.128Z,88846.13
2023-09-09T17:53:45.312Z,88844.63
2023-09-09T17:56:33.041Z,88847.72
2023-09-09T17:59:19.463Z,88857.13
2023-09-09T18:02:04.586Z,88848.94
2023-09-09T18:04:49.581Z,88856.66
2023-09-09T18:07:34.823Z,88850.63
2023-09-09T18:10:19.804Z,88864.06
2023-09-09T18:13:04.789Z,88864.06
2023-09-09T18:15:49.956Z,88861.88
2023-09-09T18:18:34.926Z,88870.50
2023-09-09T18:21:20.153Z,88878.78
2023-09-09T18:24:05.105Z,88869.69
2023-09-09T18:26:50.351Z,88875.09
2023-09-09T18:29:35.423Z,88882.91
2023-09-09T18:32:20.663Z,88884.69
2023-09-09T18:35:05.941Z,88888.41
2023-09-09T18:37:50.881Z,88889.59
2023-09-09T18:40:36.200Z,88898.38
2023-09-09T18:43:21.264Z,88898.69
2023-09-09T18:46:06.381Z,88910.03
2023-09-09T18:48:51.315Z,88911.72
2023-09-09T18:51:36.372Z,88916.84
2023-09-09T18:54:21.541Z,88917.91
2023-09-09T18:57:06.885Z,88915.06
2023-09-09T18:59:51.771Z,88927.97
2023-09-09T19:02:37.091Z,88922.53
2023-09-09T19:05:22.718Z,88928.53
2023-09-09T19:08:07.549Z,88919.66
2023-09-09T19:10:52.723Z,88926.16
2023-09-09T19:13:37.711Z,88939.59
2023-09-09T19:16:22.795Z,88942.03
2023-09-09T19:19:07.716Z,88933.16
2023-09-09T19:21:52.878Z,88940.56
2023-09-09T19:24:38.068Z,88943.00
2023-09-09T19:27:23.136Z,88944.75
2023-09-09T19:30:08.210Z,88950.34
2023-09-09T19:32:53.569Z,88954.75
2023-09-09T19:35:38.468Z,88951.75
2023-09-09T19:38:23.651Z,88954.13
2023-09-09T19:41:08.725Z,88953.31
2023-09-09T19:43:53.916Z,88955.31
2023-09-09T19:46:38.924Z,88961.56
2023-09-09T19:49:24.238Z,88961.44
2023-09-09T19:52:09.278Z,88966.19
2023-09-09T19:54:54.315Z,88963.56
2023-09-09T19:57:39.574Z,88964.59
2023-09-09T20:00:24.657Z,88966.97
2023-09-09T20:03:09.994Z,88961.38
2023-09-09T20:05:54.946Z,88967.06
2023-09-09T20:08:40.369Z,88967.75
2023-09-09T20:11:25.291Z,88976.19
2023-09-09T20:14:10.428Z,88969.34
2023-09-09T20:16:55.674Z,88974.00
2023-09-09T20:19:40.644Z,88980.63
2023-09-09T20:22:28.315Z,88977.50
2023-09-09T20:25:14.360Z,88988.03
2023-09-09T20:27:59.428Z,88990.78
2023-09-09T20:30:44.728Z,88987.91
2023-09-09T20:33:29.726Z,89001.22
2023-09-09T20:36:15.044Z,88996.69
2023-09-09T20:39:00.057Z,88995.66
2023-09-09T20:41:45.222Z,88994.63
2023-09-09T20:44:30.370Z,88998.91
2023-09-09T20:47:15.525Z,88997.28
2023-09-09T20:50:00.603Z,88994.84
2023-09-09T20:52:45.494Z,89001.06
2023-09-09T20:55:30.769Z,89009.19
2023-09-09T20:58:15.803Z,89002.00
2023-09-09T21:01:00.965Z,89006.06
2023-09-09T21:03:46.064Z,89006.84
2023-09-09T21:06:31.240Z,89002.34
2023-09-09T21:09:16.471Z,89013.81
2023-09-09T21:12:01.404Z,89008.50
2023-09-09T21:14:46.534Z,89014.06
2023-09-09T21:17:31.638Z,89014.75
2023-09-09T21:20:16.604Z,89007.81
2023-09-09T21:23:01.664Z,89007.44
2023-09-09T21:25:46.812Z,89010.56
2023-09-09T21:28:31.970Z,89008.03
2023-09-09T21:31:17.021Z,89013.94
2023-09-09T21:34:02.136Z,89011.25
2023-09-09T21:36:47.171Z,89001.56
2023-09-09T21:39:32.430Z,89010.19
2023-09-09T21:42:17.545Z,89004.06
2023-09-09T21:45:02.709Z,89014.81
2023-09-09T21:47:47.882Z,89012.03
2023-09-09T21:50:32.930Z,89010.59
2023-09-09T21:53:18.169Z,89010.47
2023-09-09T21:56:03.246Z,89011.59
2023-09-09T21:58:48.496Z,89009.44
2023-09-09T22:01:33.412Z,89012.97
2023-09-09T22:04:18.558Z,89007.53
2023-09-09T22:07:03.714Z,89004.94
2023-09-09T22:09:48.878Z,89003.91
2023-09-09T22:12:34.125Z,89003.91
2023-09-09T22:15:19.269Z,89011.28
2023-09-09T22:18:04.600Z,89003.31
2023-09-09T22:20:49.487Z,89005.66
2023-09-09T22:23:34.730Z,89003.69
2023-09-09T22:26:19.917Z,89009.25
2023-09-09T22:29:05.024Z,89011.91
2023-09-09T22:31:50.177Z,89013.88
2023-09-09T22:34:35.208Z,89010.22
2023-09-09T22:37:20.349Z,89015.97
2023-09-09T22:40:05.575Z,89020.81
2023-09-09T22:42:50.714Z,89018.50
2023-09-09T22:45:35.839Z,89015.63
2023-09-09T22:48:20.859Z,89021.72
2023-09-09T22:51:06.043Z,89014.09
2023-09-09T22:53:51.095Z,89011.03
2023-09-09T22:56:36.289Z,89017.63
2023-09-09T22:59:21.464Z,89015.78
2023-09-09T23:02:06.640Z,89016.47
2023-09-09T23:04:51.713Z,89009.91
2023-09-09T23:07:49.958Z,89010.81
2023-09-09T23:10:35.231Z,89008.72
2023-09-09T23:13:20.242Z,89016.69
2023-09-09T23:16:05.468Z,89012.75
2023-09-09T23:18:50.399Z,89022.47
2023-09-09T23:21:35.631Z,89016.69
2023-09-09T23:24:20.752Z,89017.78
2023-09-09T23:27:05.835Z,89018.47
2023-09-09T23:29:50.811Z,89021.06
2023-09-09T23:32:36.013Z,89020.47
2023-09-09T23:35:21.061Z,89020.16
2023-09-09T23:38:06.296Z,89014.97
2023-09-09T23:40:51.548Z,89027.41
2023-09-09T23:43:36.622Z,89030.00
2023-09-09T23:46:21.740Z,89023.41
2023-09-09T23:49:06.783Z,89025.31
2023-09-09T23:51:51.895Z,89021.59
2023-09-09T23:54:37.006Z,89020.88
2023-09-09T23:57:22.092Z,89023.53
